createdAt,value
2019-05-26T00:00:10.792Z,14.30
2019-05-26T00:02:39.265Z,14.30
2019-05-26T00:05:08.764Z,14.00
2019-05-26T00:07:37.315Z,13.90
2019-05-26T00:10:09.371Z,14.00
2019-05-26T00:12:38.008Z,13.80
2019-05-26T00:15:07.753Z,13.80
2019-05-26T00:17:36.253Z,13.80
2019-05-26T00:20:08.032Z,13.60
2019-05-26T00:22:36.532Z,13.60
2019-05-26T00:25:07.220Z,13.80
2019-05-26T00:27:35.843Z,13.80
2019-05-26T00:30:07.357Z,13.90
2019-05-26T00:32:35.836Z,13.90
2019-05-26T00:35:08.796Z,13.80
2019-05-26T00:37:48.536Z,13.80
2019-05-26T00:40:09.241Z,13.70
2019-05-26T00:42:38.054Z,13.70
2019-05-26T00:45:08.074Z,13.70
2019-05-26T00:47:36.736Z,13.60
2019-05-26T00:50:08.936Z,13.60
2019-05-26T00:52:37.603Z,13.70
2019-05-26T00:55:07.973Z,13.70
2019-05-26T00:57:36.803Z,13.70
2019-05-26T01:00:11.461Z,13.60
2019-05-26T01:02:40.099Z,13.60
2019-05-26T01:05:09.674Z,13.70
2019-05-26T01:07:38.722Z,13.60
2019-05-26T01:10:07.953Z,13.50
2019-05-26T01:12:36.437Z,13.60
2019-05-26T01:15:06.831Z,13.60
2019-05-26T01:17:35.311Z,13.60
2019-05-26T01:20:04.750Z,13.50
2019-05-26T01:22:33.254Z,13.40
2019-05-26T01:25:01.799Z,13.20
2019-05-26T01:27:30.284Z,13.00
2019-05-26T01:29:58.840Z,12.80
2019-05-26T01:32:27.320Z,12.90
2019-05-26T01:34:55.847Z,13.10
2019-05-26T01:37:24.400Z,13.00
2019-05-26T01:39:52.960Z,13.10
2019-05-26T01:42:21.517Z,13.10
2019-05-26T01:44:50.057Z,13.10
2019-05-26T01:47:18.538Z,13.00
2019-05-26T01:49:47.107Z,13.00
2019-05-26T01:52:15.657Z,12.90
2019-05-26T01:54:44.117Z,12.90
2019-05-26T01:57:12.690Z,12.70
2019-05-26T01:59:41.241Z,12.80
2019-05-26T02:02:09.799Z,12.70
2019-05-26T02:04:38.363Z,12.60
2019-05-26T02:07:06.951Z,12.70
2019-05-26T02:09:35.557Z,12.70
2019-05-26T02:12:04.256Z,12.80
2019-05-26T02:14:32.756Z,13.00
2019-05-26T02:17:01.354Z,12.90
2019-05-26T02:19:29.884Z,12.90
2019-05-26T02:21:58.401Z,12.90
2019-05-26T02:24:26.932Z,13.00
2019-05-26T02:26:55.442Z,13.00
2019-05-26T02:29:23.926Z,12.90
2019-05-26T02:31:52.467Z,12.90
2019-05-26T02:34:21.045Z,12.90
2019-05-26T02:36:49.590Z,12.90
2019-05-26T02:39:18.127Z,12.90
2019-05-26T02:41:46.704Z,12.70
2019-05-26T02:44:15.196Z,12.50
2019-05-26T02:46:43.840Z,12.40
2019-05-26T02:49:12.403Z,12.50
2019-05-26T02:51:40.985Z,12.50
2019-05-26T02:54:09.527Z,12.40
2019-05-26T02:56:38.651Z,12.50
2019-05-26T02:59:07.231Z,12.50
2019-05-26T03:01:35.809Z,12.50
2019-05-26T03:04:04.544Z,12.50
2019-05-26T03:06:34.856Z,12.40
2019-05-26T03:09:21.737Z,12.30
2019-05-26T03:11:37.414Z,12.40
2019-05-26T03:14:05.902Z,12.20
2019-05-26T03:16:37.857Z,12.20
2019-05-26T03:19:06.533Z,12.10
2019-05-26T03:21:35.283Z,12.20
2019-05-26T03:24:04.837Z,12.20
2019-05-26T03:26:33.494Z,12.20
2019-05-26T03:29:02.036Z,12.10
2019-05-26T03:31:30.696Z,11.90
2019-05-26T03:33:59.254Z,12.00
2019-05-26T03:36:27.829Z,12.20
2019-05-26T03:38:56.384Z,12.20
2019-05-26T03:41:24.890Z,12.10
2019-05-26T03:43:53.437Z,12.10
2019-05-26T03:46:22.177Z,12.10
2019-05-26T03:48:51.436Z,12.10
2019-05-26T03:51:20.144Z,12.10
2019-05-26T03:53:48.623Z,12.10
2019-05-26T03:56:17.266Z,12.10
2019-05-26T03:58:45.814Z,12.10
2019-05-26T04:01:14.436Z,12.10
2019-05-26T04:03:42.950Z,12.20
2019-05-26T04:06:11.607Z,12.30
2019-05-26T04:08:40.191Z,12.20
2019-05-26T04:11:08.691Z,12.30
2019-05-26T04:13:37.248Z,12.20
2019-05-26T04:16:05.884Z,12.10
2019-05-26T04:18:34.447Z,12.10
2019-05-26T04:21:03.010Z,12.10
2019-05-26T04:23:31.657Z,12.10
2019-05-26T04:26:00.127Z,12.00
2019-05-26T04:28:28.611Z,12.00
2019-05-26T04:30:57.104Z,12.10
2019-05-26T04:33:25.669Z,12.20
2019-05-26T04:35:54.234Z,12.20
2019-05-26T04:38:22.781Z,12.30
2019-05-26T04:40:51.295Z,12.20
2019-05-26T04:43:20.005Z,12.10
2019-05-26T04:45:48.575Z,12.10
2019-05-26T04:48:17.173Z,12.20
2019-05-26T04:50:45.779Z,12.10
2019-05-26T04:53:14.384Z,12.20
2019-05-26T04:55:42.978Z,12.40
2019-05-26T04:58:11.521Z,12.40
2019-05-26T05:00:40.098Z,12.40
2019-05-26T05:03:08.702Z,12.40
2019-05-26T05:05:37.342Z,12.30
2019-05-26T05:08:05.893Z,12.40
2019-05-26T05:10:42.294Z,12.50
2019-05-26T05:13:04.715Z,12.60
2019-05-26T05:15:33.234Z,12.60
2019-05-26T05:18:01.857Z,12.40
2019-05-26T05:20:30.358Z,12.40
2019-05-26T05:22:58.846Z,12.40
2019-05-26T05:25:27.335Z,12.40
2019-05-26T05:27:55.819Z,12.50
2019-05-26T05:30:24.443Z,12.50
2019-05-26T05:32:52.990Z,12.50
2019-05-26T05:35:21.667Z,12.50
2019-05-26T05:37:50.263Z,12.70
2019-05-26T05:40:18.916Z,12.80
2019-05-26T05:42:47.394Z,12.90
2019-05-26T05:45:16.124Z,12.90
2019-05-26T05:47:44.598Z,13.00
2019-05-26T05:50:13.532Z,13.10
2019-05-26T05:52:42.107Z,13.20
2019-05-26T05:55:11.984Z,13.10
2019-05-26T05:57:40.521Z,13.10
2019-05-26T06:00:10.695Z,13.30
2019-05-26T06:02:39.274Z,13.50
2019-05-26T06:05:08.295Z,13.50
2019-05-26T06:07:36.837Z,13.60
2019-05-26T06:10:08.406Z,13.60
2019-05-26T06:12:37.079Z,13.50
2019-05-26T06:15:14.569Z,13.70
2019-05-26T06:17:43.259Z,13.70
2019-05-26T06:20:12.166Z,13.90
2019-05-26T06:22:40.646Z,14.00
2019-05-26T06:25:10.752Z,14.10
2019-05-26T06:27:39.292Z,14.00
2019-05-26T06:30:09.627Z,14.10
2019-05-26T06:32:38.120Z,14.00
2019-05-26T06:35:07.037Z,14.10
2019-05-26T06:37:35.522Z,14.20
2019-05-26T06:40:05.948Z,14.10
2019-05-26T06:42:34.490Z,14.20
2019-05-26T06:45:03.463Z,14.40
2019-05-26T06:47:31.966Z,14.40
2019-05-26T06:50:00.517Z,14.50
2019-05-26T06:52:28.980Z,14.40
2019-05-26T06:54:57.486Z,14.30
2019-05-26T06:57:25.952Z,14.50
2019-05-26T06:59:54.444Z,14.60
2019-05-26T07:02:22.936Z,14.50
2019-05-26T07:04:51.480Z,14.50
2019-05-26T07:07:20.061Z,14.50
2019-05-26T07:09:48.531Z,14.60
2019-05-26T07:12:17.028Z,14.60
2019-05-26T07:14:45.504Z,14.80
2019-05-26T07:17:13.970Z,14.70
2019-05-26T07:19:42.470Z,14.70
2019-05-26T07:22:11.038Z,14.70
2019-05-26T07:24:39.507Z,14.80
2019-05-26T07:27:07.997Z,15.00
2019-05-26T07:29:36.545Z,15.00
2019-05-26T07:32:05.431Z,15.00
2019-05-26T07:34:34.235Z,15.10
2019-05-26T07:37:02.802Z,15.10
2019-05-26T07:39:31.276Z,15.20
2019-05-26T07:42:09.965Z,15.30
2019-05-26T07:44:30.070Z,15.40
2019-05-26T07:46:58.572Z,15.50
2019-05-26T07:49:27.089Z,15.60
2019-05-26T07:51:55.647Z,15.60
2019-05-26T07:54:25.826Z,15.70
2019-05-26T07:56:54.361Z,15.70
2019-05-26T07:59:22.972Z,15.90
2019-05-26T08:01:51.481Z,15.90
2019-05-26T08:04:19.948Z,15.90
2019-05-26T08:06:48.440Z,16.10
2019-05-26T08:09:16.955Z,16.40
2019-05-26T08:11:45.460Z,16.50
2019-05-26T08:14:13.932Z,16.70
2019-05-26T08:16:42.500Z,16.70
2019-05-26T08:19:11.002Z,16.70
2019-05-26T08:21:39.581Z,16.70
2019-05-26T08:24:08.147Z,16.70
2019-05-26T08:26:36.722Z,16.90
2019-05-26T08:29:05.272Z,17.00
2019-05-26T08:31:33.854Z,17.00
2019-05-26T08:34:02.327Z,16.90
2019-05-26T08:36:30.891Z,17.00
2019-05-26T08:38:59.364Z,17.20
2019-05-26T08:41:27.848Z,17.10
2019-05-26T08:43:56.500Z,17.10
2019-05-26T08:46:24.995Z,17.10
2019-05-26T08:48:53.528Z,17.00
2019-05-26T08:51:22.017Z,17.10
2019-05-26T08:53:50.488Z,17.10
2019-05-26T08:56:18.965Z,17.10
2019-05-26T08:58:47.520Z,17.20
2019-05-26T09:01:15.976Z,17.30
2019-05-26T09:03:44.466Z,17.40
2019-05-26T09:06:12.978Z,17.70
2019-05-26T09:08:41.441Z,17.70
2019-05-26T09:11:10.005Z,17.60
2019-05-26T09:13:38.613Z,17.70
2019-05-26T09:16:07.151Z,17.90
2019-05-26T09:18:35.627Z,18.10
2019-05-26T09:21:04.197Z,18.10
2019-05-26T09:23:32.694Z,18.20
2019-05-26T09:26:01.277Z,18.00
2019-05-26T09:28:30.168Z,18.30
2019-05-26T09:30:58.716Z,18.20
2019-05-26T09:33:27.307Z,18.10
2019-05-26T09:35:55.871Z,18.00
2019-05-26T09:38:24.417Z,18.10
2019-05-26T09:40:52.949Z,18.10
2019-05-26T09:43:21.479Z,18.40
2019-05-26T09:45:49.962Z,18.30
2019-05-26T09:48:18.557Z,18.30
2019-05-26T09:50:47.107Z,18.40
2019-05-26T09:53:15.640Z,18.30
2019-05-26T09:55:44.187Z,18.30
2019-05-26T09:58:12.650Z,18.30
2019-05-26T10:00:42.801Z,18.40
2019-05-26T10:03:11.290Z,18.70
2019-05-26T10:05:39.853Z,18.80
2019-05-26T10:08:08.317Z,18.90
2019-05-26T10:10:36.797Z,18.80
2019-05-26T10:13:05.439Z,18.80
2019-05-26T10:15:34.821Z,19.20
2019-05-26T10:18:03.285Z,19.70
2019-05-26T10:20:31.782Z,19.90
2019-05-26T10:23:00.269Z,19.90
2019-05-26T10:25:28.743Z,19.70
2019-05-26T10:27:57.258Z,19.80
2019-05-26T10:30:26.081Z,20.20
2019-05-26T10:32:54.647Z,20.20
2019-05-26T10:35:23.171Z,20.10
2019-05-26T10:37:51.675Z,20.20
2019-05-26T10:40:20.249Z,20.30
2019-05-26T10:42:49.101Z,20.30
2019-05-26T10:45:19.073Z,20.30
2019-05-26T10:47:47.963Z,20.50
2019-05-26T10:50:16.649Z,20.50
2019-05-26T10:52:45.227Z,20.40
2019-05-26T10:55:13.915Z,20.40
2019-05-26T10:57:42.423Z,20.30
2019-05-26T11:00:11.631Z,20.10
2019-05-26T11:02:40.177Z,19.80
2019-05-26T11:05:09.230Z,19.80
2019-05-26T11:07:37.771Z,19.70
2019-05-26T11:10:08.010Z,19.80
2019-05-26T11:12:36.549Z,20.00
2019-05-26T11:15:09.641Z,20.00
2019-05-26T11:17:38.360Z,20.10
2019-05-26T11:20:10.612Z,20.20
2019-05-26T11:22:39.206Z,20.40
2019-05-26T11:25:08.434Z,20.30
2019-05-26T11:27:36.976Z,20.20
2019-05-26T11:30:13.574Z,20.20
2019-05-26T11:32:42.160Z,20.30
2019-05-26T11:35:12.760Z,20.20
2019-05-26T11:37:41.424Z,20.30
2019-05-26T11:40:10.633Z,20.30
2019-05-26T11:42:39.207Z,20.40
2019-05-26T11:45:08.737Z,20.50
2019-05-26T11:47:37.213Z,20.30
2019-05-26T11:50:10.350Z,20.30
2019-05-26T11:52:38.910Z,20.20
2019-05-26T11:55:07.887Z,20.20
2019-05-26T11:57:37.355Z,20.30
2019-05-26T12:00:09.736Z,20.40
2019-05-26T12:02:39.036Z,20.50
2019-05-26T12:05:08.347Z,20.50
2019-05-26T12:07:36.896Z,20.50
2019-05-26T12:10:08.873Z,20.50
2019-05-26T12:12:37.448Z,20.50
2019-05-26T12:15:09.389Z,20.50
2019-05-26T12:17:37.943Z,20.30
2019-05-26T12:20:07.490Z,20.20
2019-05-26T12:22:36.133Z,20.20
2019-05-26T12:25:06.931Z,20.20
2019-05-26T12:27:35.523Z,20.30
2019-05-26T12:30:07.398Z,20.40
2019-05-26T12:32:35.888Z,20.50
2019-05-26T12:35:07.758Z,20.60
2019-05-26T12:37:36.261Z,20.80
2019-05-26T12:40:08.719Z,20.60
2019-05-26T12:42:37.374Z,20.60
2019-05-26T12:45:08.096Z,20.70
2019-05-26T12:47:36.765Z,20.60
2019-05-26T12:50:06.746Z,20.70
2019-05-26T12:52:35.246Z,20.80
2019-05-26T12:55:08.475Z,20.90
2019-05-26T12:57:34.877Z,21.10
2019-05-26T13:00:07.705Z,21.30
2019-05-26T13:02:36.276Z,21.20
2019-05-26T13:05:06.688Z,21.20
2019-05-26T13:07:35.203Z,21.00
2019-05-26T13:10:07.958Z,21.00
2019-05-26T13:12:36.574Z,21.10
2019-05-26T13:15:09.552Z,21.10
2019-05-26T13:17:38.112Z,21.30
2019-05-26T13:20:08.514Z,21.40
2019-05-26T13:22:37.249Z,21.40
2019-05-26T13:25:10.792Z,21.40
2019-05-26T13:27:39.438Z,21.20
2019-05-26T13:30:13.342Z,21.40
2019-05-26T13:32:41.910Z,21.30
2019-05-26T13:35:11.889Z,21.40
2019-05-26T13:37:40.454Z,21.40
2019-05-26T13:40:09.794Z,21.40
2019-05-26T13:42:38.389Z,21.30
2019-05-26T13:45:21.264Z,21.30
2019-05-26T13:47:38.465Z,21.40
2019-05-26T13:50:07.956Z,21.40
2019-05-26T13:52:36.438Z,21.40
2019-05-26T13:55:07.103Z,21.40
2019-05-26T13:57:35.695Z,21.30
2019-05-26T14:00:09.790Z,21.30
2019-05-26T14:02:38.410Z,21.40
2019-05-26T14:05:07.853Z,21.30
2019-05-26T14:07:36.472Z,21.20
2019-05-26T14:10:06.193Z,21.20
2019-05-26T14:12:34.732Z,21.10
2019-05-26T14:15:04.109Z,21.10
2019-05-26T14:17:34.614Z,21.00
2019-05-26T14:20:06.252Z,21.00
2019-05-26T14:22:34.883Z,21.10
2019-05-26T14:25:04.854Z,21.00
2019-05-26T14:27:33.373Z,21.10
2019-05-26T14:30:01.955Z,21.30
2019-05-26T14:32:30.451Z,21.40
2019-05-26T14:34:58.970Z,21.60
2019-05-26T14:37:27.541Z,21.70
2019-05-26T14:39:56.097Z,21.70
2019-05-26T14:42:24.565Z,21.80
2019-05-26T14:44:53.851Z,21.60
2019-05-26T14:47:22.436Z,21.60
2019-05-26T14:49:51.002Z,21.70
2019-05-26T14:52:19.641Z,21.50
2019-05-26T14:54:48.161Z,21.40
2019-05-26T14:57:16.648Z,21.40
2019-05-26T14:59:45.168Z,21.60
2019-05-26T15:02:13.657Z,21.60
2019-05-26T15:04:42.204Z,21.50
2019-05-26T15:07:10.704Z,21.50
2019-05-26T15:09:39.194Z,21.30
2019-05-26T15:12:07.659Z,21.40
2019-05-26T15:14:36.198Z,21.40
2019-05-26T15:17:04.739Z,21.20
2019-05-26T15:19:33.209Z,21.20
2019-05-26T15:22:01.717Z,21.10
2019-05-26T15:24:30.286Z,21.10
2019-05-26T15:26:58.852Z,21.20
2019-05-26T15:29:27.334Z,21.10
2019-05-26T15:31:55.869Z,21.10
2019-05-26T15:34:24.425Z,21.10
2019-05-26T15:36:52.923Z,20.90
2019-05-26T15:39:21.476Z,20.90
2019-05-26T15:41:49.971Z,21.10
2019-05-26T15:44:18.461Z,21.00
2019-05-26T15:46:47.010Z,21.10
2019-05-26T15:49:15.572Z,21.30
2019-05-26T15:51:44.042Z,21.40
2019-05-26T15:54:12.545Z,21.50
2019-05-26T15:56:41.160Z,21.40
2019-05-26T15:59:09.640Z,21.30
2019-05-26T16:01:38.189Z,21.30
2019-05-26T16:04:06.764Z,21.40
2019-05-26T16:06:35.304Z,21.40
2019-05-26T16:09:05.572Z,21.10
2019-05-26T16:11:34.124Z,21.00
2019-05-26T16:14:02.709Z,21.00
2019-05-26T16:16:40.798Z,20.90
2019-05-26T16:19:01.498Z,20.90
2019-05-26T16:21:29.984Z,20.80
2019-05-26T16:23:58.553Z,20.80
2019-05-26T16:26:27.091Z,20.70
2019-05-26T16:28:55.670Z,20.80
2019-05-26T16:31:24.238Z,20.90
2019-05-26T16:33:52.718Z,20.90
2019-05-26T16:36:21.659Z,20.90
2019-05-26T16:38:50.310Z,20.80
2019-05-26T16:41:18.860Z,20.90
2019-05-26T16:43:47.341Z,20.90
2019-05-26T16:46:15.914Z,20.90
2019-05-26T16:48:44.489Z,20.80
2019-05-26T16:51:13.057Z,20.80
2019-05-26T16:53:41.618Z,20.80
2019-05-26T16:56:10.193Z,20.60
2019-05-26T16:58:38.718Z,20.40
2019-05-26T17:01:07.220Z,20.40
2019-05-26T17:03:35.878Z,20.40
2019-05-26T17:06:07.957Z,20.40
2019-05-26T17:08:34.711Z,20.30
2019-05-26T17:11:03.174Z,20.30
2019-05-26T17:13:33.089Z,20.20
2019-05-26T17:16:01.893Z,20.10
2019-05-26T17:18:30.436Z,20.00
2019-05-26T17:20:58.915Z,20.00
2019-05-26T17:23:27.582Z,19.90
2019-05-26T17:25:56.182Z,19.90
2019-05-26T17:28:24.849Z,19.90
2019-05-26T17:30:53.381Z,19.90
2019-05-26T17:33:21.878Z,19.80
2019-05-26T17:35:50.373Z,19.70
2019-05-26T17:38:18.879Z,19.70
2019-05-26T17:40:47.410Z,19.60
2019-05-26T17:43:15.922Z,19.60
2019-05-26T17:45:45.771Z,19.60
2019-05-26T17:48:14.247Z,19.60
2019-05-26T17:50:42.746Z,19.40
2019-05-26T17:53:11.311Z,19.40
2019-05-26T17:55:39.769Z,19.30
2019-05-26T17:58:08.246Z,19.30
2019-05-26T18:00:36.809Z,19.20
2019-05-26T18:03:05.348Z,19.20
2019-05-26T18:05:33.870Z,19.20
2019-05-26T18:08:02.479Z,19.10
2019-05-26T18:10:31.003Z,19.20
2019-05-26T18:12:59.559Z,19.20
2019-05-26T18:15:28.092Z,19.10
2019-05-26T18:17:56.619Z,19.00
2019-05-26T18:20:25.181Z,18.90
2019-05-26T18:22:54.138Z,19.00
2019-05-26T18:25:22.676Z,18.90
2019-05-26T18:27:51.343Z,18.90
2019-05-26T18:30:20.264Z,18.90
2019-05-26T18:32:48.861Z,18.90
2019-05-26T18:35:17.576Z,18.90
2019-05-26T18:37:46.103Z,18.90
2019-05-26T18:40:14.937Z,18.90
2019-05-26T18:42:43.415Z,18.90
2019-05-26T18:45:12.346Z,18.80
2019-05-26T18:47:40.826Z,18.80
2019-05-26T18:50:09.836Z,18.70
2019-05-26T18:52:38.548Z,18.70
2019-05-26T18:55:08.082Z,18.70
2019-05-26T18:57:36.640Z,18.60
2019-05-26T19:00:09.396Z,18.60
2019-05-26T19:02:37.903Z,18.60
2019-05-26T19:05:07.521Z,18.60
2019-05-26T19:07:36.053Z,18.60
2019-05-26T19:10:06.768Z,18.50
2019-05-26T19:12:35.363Z,18.50
2019-05-26T19:15:05.725Z,18.50
2019-05-26T19:17:34.212Z,18.50
2019-05-26T19:20:15.702Z,18.50
2019-05-26T19:22:33.494Z,18.50
2019-05-26T19:25:01.965Z,18.50
2019-05-26T19:27:30.554Z,18.50
2019-05-26T19:29:59.130Z,18.50
2019-05-26T19:32:27.692Z,18.40
2019-05-26T19:34:56.265Z,18.40
2019-05-26T19:37:24.817Z,18.40
2019-05-26T19:39:53.281Z,18.40
2019-05-26T19:42:21.856Z,18.30
2019-05-26T19:44:50.319Z,18.30
2019-05-26T19:47:18.832Z,18.40
2019-05-26T19:49:47.481Z,18.30
2019-05-26T19:52:16.025Z,18.20
2019-05-26T19:54:44.516Z,18.20
2019-05-26T19:57:12.985Z,18.20
2019-05-26T19:59:41.488Z,18.20
2019-05-26T20:02:18.199Z,18.10
2019-05-26T20:04:40.515Z,18.20
2019-05-26T20:07:09.112Z,18.20
2019-05-26T20:09:37.613Z,18.20
2019-05-26T20:12:06.755Z,18.10
2019-05-26T20:14:35.296Z,18.00
2019-05-26T20:17:03.770Z,17.90
2019-05-26T20:19:32.269Z,17.90
2019-05-26T20:22:00.753Z,17.90
2019-05-26T20:24:29.231Z,17.80
2019-05-26T20:26:57.865Z,17.60
2019-05-26T20:29:26.429Z,17.80
2019-05-26T20:31:54.932Z,17.60
2019-05-26T20:34:23.522Z,17.50
2019-05-26T20:36:52.058Z,17.40
2019-05-26T20:39:20.605Z,17.50
2019-05-26T20:41:49.105Z,17.40
2019-05-26T20:44:17.646Z,17.40
2019-05-26T20:46:46.329Z,17.30
2019-05-26T20:49:16.464Z,17.30
2019-05-26T20:51:44.960Z,17.30
2019-05-26T20:54:13.439Z,17.30
2019-05-26T20:56:42.001Z,17.20
2019-05-26T20:59:10.594Z,17.10
2019-05-26T21:01:39.163Z,17.10
2019-05-26T21:04:07.814Z,17.10
2019-05-26T21:06:36.388Z,17.20
2019-05-26T21:09:10.890Z,17.20
2019-05-26T21:11:37.604Z,17.20
2019-05-26T21:14:06.151Z,17.10
2019-05-26T21:16:34.653Z,17.20
2019-05-26T21:19:03.144Z,17.20
2019-05-26T21:21:31.621Z,17.10
2019-05-26T21:24:00.214Z,17.20
2019-05-26T21:26:28.741Z,17.10
2019-05-26T21:28:57.229Z,17.10
2019-05-26T21:31:25.780Z,17.00
2019-05-26T21:33:54.298Z,17.00
2019-05-26T21:36:22.785Z,17.10
2019-05-26T21:38:51.310Z,16.90
2019-05-26T21:41:19.825Z,17.00
2019-05-26T21:43:48.315Z,17.00
2019-05-26T21:46:16.875Z,16.90
2019-05-26T21:48:45.361Z,16.80
2019-05-26T21:51:13.947Z,16.70
2019-05-26T21:53:42.505Z,16.50
2019-05-26T21:56:10.985Z,16.50
2019-05-26T21:58:39.567Z,16.30
2019-05-26T22:01:08.512Z,16.00
2019-05-26T22:03:37.096Z,15.80
2019-05-26T22:06:05.604Z,15.50
2019-05-26T22:08:34.164Z,15.40
2019-05-26T22:11:02.741Z,15.40
2019-05-26T22:13:31.285Z,15.30
2019-05-26T22:15:59.820Z,15.40
2019-05-26T22:18:28.358Z,15.30
2019-05-26T22:20:56.918Z,15.20
2019-05-26T22:23:25.419Z,15.00
2019-05-26T22:25:53.921Z,15.10
2019-05-26T22:28:22.476Z,15.10
2019-05-26T22:30:52.470Z,15.10
2019-05-26T22:33:20.960Z,15.10
2019-05-26T22:35:49.522Z,15.00
2019-05-26T22:38:17.983Z,15.10
2019-05-26T22:40:46.521Z,15.10
2019-05-26T22:43:15.036Z,15.00
2019-05-26T22:45:43.572Z,14.80
2019-05-26T22:48:12.050Z,14.90
2019-05-26T22:50:40.536Z,14.90
2019-05-26T22:53:09.019Z,14.90
2019-05-26T22:55:37.508Z,14.90
2019-05-26T22:58:06.181Z,14.90
2019-05-26T23:00:34.649Z,14.90
2019-05-26T23:03:03.201Z,14.90
2019-05-26T23:05:31.675Z,15.00
2019-05-26T23:08:00.199Z,14.90
2019-05-26T23:10:28.705Z,14.80
2019-05-26T23:12:57.180Z,14.80
2019-05-26T23:15:25.745Z,14.90
2019-05-26T23:17:54.233Z,14.90
2019-05-26T23:20:22.725Z,14.90
2019-05-26T23:22:51.201Z,14.90
2019-05-26T23:25:19.686Z,14.90
2019-05-26T23:27:48.156Z,14.90
2019-05-26T23:30:16.724Z,14.90
2019-05-26T23:32:45.229Z,14.80
2019-05-26T23:35:15.269Z,14.90
2019-05-26T23:37:43.743Z,14.90
2019-05-26T23:40:12.591Z,14.90
2019-05-26T23:42:41.145Z,15.00
2019-05-26T23:45:09.702Z,15.00
2019-05-26T23:47:38.190Z,15.10
2019-05-26T23:50:07.123Z,15.00
2019-05-26T23:52:35.604Z,14.90
2019-05-26T23:55:06.236Z,14.90
2019-05-26T23:57:34.735Z,15.10
